Time;durP1;ratioP1;P1;durP2;ratioP2;P2;SDS_P1;SDS_P2;PMS_P1;PMS_P2;Temp;Humidity;BMP_temperature;BMP_pressure;BME280_temperature;BME280_humidity;BME280_pressure;Samples;Min_cycle;Max_cycle;Signal;HPM_P1;HPM_P2
2023/11/29 00:03:17;;;;;;;;;;;;;;;;;;;;;
2023/11/29 00:05:43;;;;;;;0.65;0.65;;;;;;;3.03;59.34;98158.47;5377449;26;35665;-91
2023/11/29 00:08:10;;;;;;;0.62;0.43;;;;;;;3.18;59.35;98164.94;5356822;26;20048;-92
2023/11/29 00:10:36;;;;;;;0.50;0.50;;;;;;;3.14;59.35;98157.34;5375325;26;20426;-91
2023/11/29 00:13:04;;;;;;;0.00;0.00;;;;;;;2.80;59.33;98167.69;5355888;26;20176;-94
2023/11/29 00:15:30;;;;;;;3.17;1.65;;;;;;;2.41;59.30;98153.25;5356378;26;20047;-91
2023/11/29 00:17:58;;;;;;;0.32;0.32;;;;;;;2.49;59.31;98142.78;5370498;26;20074;-92
2023/11/29 00:20:23;;;;;;;2.62;1.08;;;;;;;2.34;59.30;98138.03;5352765;26;20075;-91
2023/11/29 00:22:49;;;;;;;0.22;0.22;;;;;;;2.22;59.30;98154.59;5351769;26;20075;-91
2023/11/29 00:25:14;;;;;;;0.62;0.62;;;;;;;2.03;59.28;98179.84;5352031;26;20129;-90
2023/11/29 00:27:40;;;;;;;0.80;0.80;;;;;;;1.83;59.28;98167.44;5351900;26;20048;-89
2023/11/29 00:30:11;;;;;;;0.05;0.05;;;;;;;1.87;59.28;98175.91;5353190;26;20070;-93
2023/11/29 00:32:39;;;;;;;0.47;0.30;;;;;;;1.90;59.27;98170.75;5353124;26;20135;-91
2023/11/29 00:35:05;;;;;;;0.00;0.00;;;;;;;1.85;59.28;98157.16;5352492;26;20097;-91
2023/11/29 00:37:35;;;;;;;2.17;1.90;;;;;;;1.70;59.27;98163.50;5351917;26;20040;-92
2023/11/29 00:43:58;;;;;;;0.80;0.80;;;;;;;1.62;59.26;98169.63;5356439;26;20072;-92
2023/11/29 00:50:30;;;;;;;1.90;1.27;;;;;;;1.66;59.27;98202.91;5345435;26;20123;-95
2023/11/29 00:56:20;;;;;;;0.40;0.40;;;;;;;1.52;59.25;98220.28;5400431;26;20075;-93
2023/11/29 00:58:46;;;;;;;0.75;0.75;;;;;;;1.36;59.25;98242.81;5356972;26;20056;-92
2023/11/29 01:01:11;;;;;;;1.65;1.55;;;;;;;1.42;59.25;98263.22;5394412;26;20071;-92
2023/11/29 01:06:22;;;;;;;1.05;1.00;;;;;;;1.38;59.24;98251.31;5352981;26;20684;-90
2023/11/29 01:08:48;;;;;;;0.65;0.47;;;;;;;1.50;59.25;98245.97;5355576;26;20059;-91
2023/11/29 01:11:30;;;;;;;0.28;0.28;;;;;;;1.41;59.26;98235.03;5375012;26;20424;-92
2023/11/29 01:14:06;;;;;;;;;;;;;;;;;;;;;
2023/11/29 01:16:31;;;;;;;3.30;1.65;;;;;;;1.26;59.24;98228.50;5362714;26;35261;-91
2023/11/29 01:18:58;;;;;;;1.23;1.10;;;;;;;1.36;59.25;98230.00;5333990;26;20364;-89
2023/11/29 01:21:24;;;;;;;0.17;0.17;;;;;;;1.26;59.25;98245.59;5352304;26;20056;-91
2023/11/29 01:23:55;;;;;;;0.00;0.00;;;;;;;1.45;59.25;98240.09;5370344;26;20063;-93
2023/11/29 01:26:31;;;;;;;0.30;0.20;;;;;;;1.24;59.24;98240.50;5351832;26;20068;-91
2023/11/29 01:28:57;;;;;;;4.37;3.35;;;;;;;1.18;59.23;98250.84;5372309;26;20055;-90
2023/11/29 01:31:25;;;;;;;1.50;1.40;;;;;;;1.13;59.23;98253.50;5370865;26;20178;-91
2023/11/29 01:34:46;;;;;;;0.60;0.37;;;;;;;1.12;59.23;98238.16;5370116;26;20419;-91
2023/11/29 01:37:13;;;;;;;1.30;1.20;;;;;;;1.10;59.23;98252.69;5288672;27;20057;-91
2023/11/29 01:39:41;;;;;;;0.62;0.62;;;;;;;1.15;59.23;98258.59;5280588;27;20091;-91
2023/11/29 01:42:07;;;;;;;4.80;2.45;;;;;;;1.05;59.23;98264.75;5318314;26;20191;-89
2023/11/29 01:44:32;;;;;;;0.43;0.40;;;;;;;1.06;59.23;98261.31;5370802;26;20072;-92
2023/11/29 01:46:58;;;;;;;0.10;0.10;;;;;;;1.13;59.23;98275.72;5370662;26;20100;-91
2023/11/29 01:49:23;;;;;;;1.48;1.37;;;;;;;1.19;59.24;98283.31;5370320;26;20129;-91
2023/11/29 01:51:49;;;;;;;0.00;0.00;;;;;;;1.16;59.23;98286.75;5370561;26;20052;-90
2023/11/29 01:54:14;;;;;;;1.67;1.02;;;;;;;1.10;59.23;98292.00;5370583;26;20059;-91
2023/11/29 01:56:39;;;;;;;2.97;2.78;;;;;;;1.12;59.24;98290.25;5370548;26;20084;-90
2023/11/29 01:59:05;;;;;;;0.30;0.30;;;;;;;1.20;59.24;98305.50;5350763;26;20095;-89
2023/11/29 02:01:31;;;;;;;0.98;0.98;;;;;;;1.15;59.23;98310.69;5369532;26;20051;-89
2023/11/29 02:03:56;;;;;;;0.10;0.10;;;;;;;1.10;59.23;98325.28;5332687;26;20059;-89
2023/11/29 02:06:22;;;;;;;1.75;1.65;;;;;;;1.11;59.23;98311.63;5351591;26;20357;-88
2023/11/29 02:08:47;;;;;;;0.00;0.00;;;;;;;1.11;59.23;98327.00;5350922;26;20104;-89
2023/11/29 02:11:13;;;;;;;1.75;1.55;;;;;;;1.11;59.24;98341.53;5369886;26;20075;-89
2023/11/29 02:13:39;;;;;;;0.47;0.47;;;;;;;1.02;59.23;98344.25;5352152;26;20119;-89
2023/11/29 02:16:07;;;;;;;5.57;4.10;;;;;;;1.00;59.22;98340.88;5350788;26;20072;-89
2023/11/29 02:18:33;;;;;;;0.10;0.10;;;;;;;0.93;59.22;98343.50;5334248;26;20070;-91
2023/11/29 02:21:00;;;;;;;0.68;0.68;;;;;;;0.96;59.22;98346.91;5352026;26;20067;-91
2023/11/29 02:23:42;;;;;;;0.37;0.37;;;;;;;0.83;59.22;98351.38;5334009;26;20392;-90
2023/11/29 02:26:08;;;;;;;6.85;2.72;;;;;;;0.85;59.22;98353.03;5372799;26;20064;-90
2023/11/29 02:28:34;;;;;;;2.30;0.90;;;;;;;0.86;59.22;98362.41;5334021;26;20400;-89
2023/11/29 02:30:59;;;;;;;1.33;0.95;;;;;;;0.91;59.22;98355.50;5352107;26;20048;-90
2023/11/29 02:33:25;;;;;;;0.43;0.43;;;;;;;1.06;59.23;98358.69;5370823;26;20455;-90
2023/11/29 02:35:50;;;;;;;0.30;0.30;;;;;;;1.04;59.24;98375.81;5371164;26;20324;-90
2023/11/29 02:38:17;;;;;;;1.15;1.12;;;;;;;0.80;59.21;98377.87;5352129;26;20396;-90
2023/11/29 02:40:45;;;;;;;0.82;0.82;;;;;;;0.94;59.22;98375.09;5352588;26;20102;-91
2023/11/29 02:43:11;;;;;;;1.65;1.55;;;;;;;0.99;59.22;98393.81;5334831;26;20076;-90
2023/11/29 02:46:10;;;;;;;1.60;1.50;;;;;;;0.97;59.23;98394.72;5371242;26;20064;-92
2023/11/29 02:48:35;;;;;;;2.17;2.07;;;;;;;0.99;59.22;98416.03;5346703;26;20055;-90
2023/11/29 02:51:00;;;;;;;0.70;0.70;;;;;;;0.97;59.23;98415.22;5352009;26;20149;-89
2023/11/29 02:53:26;;;;;;;0.00;0.00;;;;;;;1.05;59.23;98427.03;5370750;26;20144;-90
2023/11/29 02:55:52;;;;;;;0.65;0.65;;;;;;;1.19;59.24;98419.16;5370661;26;20079;-91
2023/11/29 02:58:17;;;;;;;0.17;0.17;;;;;;;1.36;59.25;98419.69;5370931;26;20122;-91
2023/11/29 03:00:43;;;;;;;0.90;0.88;;;;;;;1.37;59.25;98430.78;5370723;26;20444;-90
2023/11/29 03:03:08;;;;;;;1.80;1.65;;;;;;;1.26;59.24;98441.22;5372125;26;20358;-90
2023/11/29 03:05:33;;;;;;;1.45;0.57;;;;;;;1.20;59.24;98449.03;5370544;26;20115;-89
2023/11/29 03:07:59;;;;;;;0.45;0.45;;;;;;;1.25;59.23;98464.34;5351445;26;21420;-90
2023/11/29 03:10:24;;;;;;;2.95;2.60;;;;;;;1.27;59.24;98449.78;5333754;26;20047;-89
2023/11/29 03:12:50;;;;;;;5.57;2.00;;;;;;;1.45;59.25;98464.88;5370327;26;20087;-88
2023/11/29 03:15:15;;;;;;;1.77;1.65;;;;;;;1.31;59.24;98483.03;5352327;26;20091;-88
2023/11/29 03:17:41;;;;;;;1.02;0.93;;;;;;;1.34;59.25;98488.09;5351760;26;20056;-88
2023/11/29 03:20:08;;;;;;;0.68;0.60;;;;;;;1.48;59.25;98485.34;5332873;26;20047;-89
2023/11/29 03:22:34;;;;;;;1.02;1.02;;;;;;;1.63;59.25;98494.47;5370713;26;20424;-89
2023/11/29 03:24:59;;;;;;;2.78;2.53;;;;;;;1.75;59.26;98492.56;5351676;26;20071;-89
2023/11/29 03:27:25;;;;;;;0.77;0.75;;;;;;;1.77;59.28;98501.09;5351033;26;23771;-89
2023/11/29 03:29:50;;;;;;;1.23;1.17;;;;;;;1.65;59.26;98506.41;5351294;26;27540;-89
2023/11/29 03:32:16;;;;;;;3.12;2.85;;;;;;;1.81;59.28;98505.28;5370343;26;20115;-89
2023/11/29 03:34:41;;;;;;;3.45;3.15;;;;;;;1.85;59.28;98514.63;5351163;26;21785;-89
2023/11/29 03:37:06;;;;;;;3.83;3.53;;;;;;;2.10;59.29;98517.59;5369695;26;20474;-90
2023/11/29 03:39:32;;;;;;;0.40;0.40;;;;;;;1.91;59.27;98525.69;5370333;26;20107;-90
2023/11/29 03:41:57;;;;;;;0.43;0.43;;;;;;;2.20;59.29;98523.44;5351265;26;20419;-90
2023/11/29 03:44:23;;;;;;;1.90;1.73;;;;;;;2.30;59.31;98526.69;5351835;26;20065;-90
2023/11/29 03:46:48;;;;;;;0.55;0.55;;;;;;;2.52;59.31;98530.53;5351456;26;20103;-90
2023/11/29 03:49:13;;;;;;;0.28;0.28;;;;;;;2.75;59.33;98533.50;5351596;26;20063;-90
2023/11/29 03:51:39;;;;;;;0.65;0.60;;;;;;;2.68;59.32;98541.38;5370496;26;20098;-89
2023/11/29 03:54:04;;;;;;;0.75;0.75;;;;;;;2.41;59.30;98537.63;5351756;26;20418;-90
2023/11/29 03:56:32;;;;;;;0.37;0.35;;;;;;;2.52;59.31;98543.38;5370171;26;20051;-90
2023/11/29 03:58:58;;;;;;;1.55;1.20;;;;;;;2.90;59.33;98544.34;5351424;26;20043;-91
2023/11/29 04:01:23;;;;;;;0.10;0.10;;;;;;;2.66;59.32;98554.25;5369942;26;20106;-90
2023/11/29 04:03:49;;;;;;;3.08;2.08;;;;;;;2.55;59.31;98561.28;5370257;26;20083;-89
2023/11/29 04:06:27;;;;;;;0.00;0.00;;;;;;;2.44;59.32;98573.50;5351358;26;20102;-91
2023/11/29 04:08:53;;;;;;;0.82;0.82;;;;;;;2.31;59.30;98572.03;5370953;26;20051;-91
2023/11/29 04:11:19;;;;;;;1.35;0.65;;;;;;;2.44;59.32;98573.50;5333426;26;20064;-91
2023/11/29 04:13:44;;;;;;;5.35;2.97;;;;;;;2.32;59.30;98576.28;5370365;26;20314;-89
2023/11/29 04:16:20;;;;;;;0.85;0.85;;;;;;;2.38;59.31;98579.59;5332123;26;20552;-89
2023/11/29 04:18:46;;;;;;;0.77;0.75;;;;;;;2.20;59.29;98585.06;5370838;26;20186;-89
2023/11/29 04:21:29;;;;;;;2.37;1.95;;;;;;;2.20;59.29;98592.75;5369961;26;20101;-89
2023/11/29 04:23:54;;;;;;;0.93;0.93;;;;;;;2.17;59.29;98600.50;5370864;26;20063;-89
2023/11/29 04:26:33;;;;;;;2.87;2.65;;;;;;;2.18;59.29;98612.47;5369748;26;20055;-89
2023/11/29 04:29:00;;;;;;;0.43;0.43;;;;;;;2.18;59.29;98611.63;5369992;26;20052;-88
2023/11/29 04:31:25;;;;;;;1.58;1.20;;;;;;;2.24;59.30;98627.78;5351353;26;20077;-89
2023/11/29 04:33:51;;;;;;;5.03;0.95;;;;;;;2.28;59.29;98631.97;5369840;26;20067;-88
2023/11/29 04:36:16;;;;;;;0.28;0.28;;;;;;;2.17;59.29;98641.59;5369471;26;20056;-88
2023/11/29 04:38:42;;;;;;;0.00;0.00;;;;;;;2.12;59.29;98644.19;5369265;26;20062;-90
2023/11/29 04:41:08;;;;;;;5.93;2.42;;;;;;;2.06;59.29;98657.13;5332361;26;20331;-90
2023/11/29 04:43:33;;;;;;;0.00;0.00;;;;;;;2.06;59.29;98654.56;5351574;26;20032;-90
2023/11/29 04:45:59;;;;;;;0.43;0.43;;;;;;;2.11;59.29;98668.19;5369999;26;20111;-89
2023/11/29 04:48:24;;;;;;;0.30;0.30;;;;;;;2.23;59.30;98666.31;5370094;26;20138;-90
2023/11/29 04:50:50;;;;;;;6.03;1.90;;;;;;;2.35;59.30;98673.78;5350707;26;20153;-90
2023/11/29 04:53:15;;;;;;;0.00;0.00;;;;;;;2.22;59.30;98667.19;5369629;26;20154;-89
2023/11/29 04:55:41;;;;;;;1.35;1.12;;;;;;;2.31;59.30;98678.12;5331640;26;20095;-89
2023/11/29 04:58:06;;;;;;;0.00;0.00;;;;;;;2.26;59.30;98672.25;5332408;26;20115;-89
2023/11/29 05:00:31;;;;;;;0.62;0.62;;;;;;;2.35;59.30;98669.50;5350675;26;22510;-89
2023/11/29 05:02:57;;;;;;;0.45;0.45;;;;;;;2.33;59.30;98665.28;5369497;26;20063;-89
2023/11/29 05:05:23;;;;;;;0.00;0.00;;;;;;;2.37;59.31;98672.94;5350887;26;20055;-89
2023/11/29 05:07:53;;;;;;;7.82;1.75;;;;;;;2.38;59.31;98668.63;5331878;26;20064;-91
2023/11/29 05:10:19;;;;;;;0.00;0.00;;;;;;;2.39;59.31;98680.59;5352060;26;20058;-90
2023/11/29 05:12:44;;;;;;;0.85;0.77;;;;;;;2.32;59.30;98676.41;5370320;26;20074;-89
2023/11/29 05:15:09;;;;;;;0.00;0.00;;;;;;;2.30;59.30;98673.03;5369811;26;20064;-89
2023/11/29 05:17:35;;;;;;;0.70;0.70;;;;;;;2.40;59.30;98680.56;5351493;26;20111;-91
2023/11/29 05:20:00;;;;;;;1.35;1.25;;;;;;;2.16;59.29;98670.69;5333354;26;20055;-90
2023/11/29 05:26:46;;;;;;;;;;;;;;;;;;;;;
2023/11/29 05:29:51;;;;;;;0.52;0.52;;;;;;;1.98;59.28;98676.09;5389985;26;37332;-93
2023/11/29 05:32:47;;;;;;;0.62;0.62;;;;;;;1.84;59.28;98671.16;5353388;26;20039;-92
2023/11/29 05:35:47;;;;;;;5.87;0.70;;;;;;;1.73;59.27;98679.03;5354093;26;20128;-93
2023/11/29 05:38:28;;;;;;;0.00;0.00;;;;;;;1.46;59.25;98672.53;5347979;26;20052;-92
2023/11/29 05:41:02;;;;;;;0.47;0.47;;;;;;;1.29;59.25;98677.03;5370647;26;20055;-92
2023/11/29 05:43:33;;;;;;;0.30;0.30;;;;;;;1.17;59.25;98675.44;5352584;26;20199;-93
2023/11/29 05:46:08;;;;;;;0.00;0.00;;;;;;;1.10;59.23;98678.09;5371276;26;20123;-91
2023/11/29 05:49:10;;;;;;;;;;;;;;;;;;;;;
2023/11/29 05:54:07;;;;;;;0.40;0.40;;;;;;;1.04;59.23;98684.13;5411377;26;35546;-92
2023/11/29 05:56:42;;;;;;;;;;;;;;;;;;;;;
2023/11/29 06:10:47;;;;;;;0.20;0.20;;;;;;;0.76;59.22;98739.94;5274119;27;20057;-91
2023/11/29 06:13:22;;;;;;;;;;;;;;;;;;;;;
2023/11/29 06:15:55;;;;;;;0.00;0.00;;;;;;;0.79;59.21;98737.34;5298549;27;35536;-92
2023/11/29 06:18:56;;;;;;;;;;;;;;;;;;;;;
2023/11/29 06:21:54;;;;;;;;;;;;;;;;;;;;;
2023/11/29 06:24:31;;;;;;;;;;;;;;;;;;;;;
2023/11/29 06:27:19;;;;;;;;;;;;;;;;;;;;;
2023/11/29 06:29:57;;;;;;;0.13;0.13;;;;;;;0.86;59.21;98756.06;5374023;26;37038;-92
2023/11/29 06:32:32;;;;;;;0.00;0.00;;;;;;;0.88;59.21;98767.13;5337297;26;20135;-92
2023/11/29 06:35:06;;;;;;;1.02;0.85;;;;;;;1.00;59.22;98777.28;5354440;26;20067;-93
2023/11/29 06:38:15;;;;;;;0.10;0.10;;;;;;;0.83;59.22;98780.00;5336011;26;20666;-92
2023/11/29 06:41:08;;;;;;;;;;;;;;;;;;;;;
2023/11/29 06:44:04;;;;;;;;;;;;;;;;;;;;;
2023/11/29 06:46:34;;;;;;;1.12;1.12;;;;;;;0.95;59.22;98783.28;5358634;26;35645;-91
2023/11/29 06:49:25;;;;;;;0.13;0.13;;;;;;;0.99;59.22;98779.88;5334393;26;20093;-93
2023/11/29 06:52:29;;;;;;;;;;;;;;;;;;;;;
2023/11/29 06:55:28;;;;;;;;;;;;;;;;;;;;;
2023/11/29 06:58:17;;;;;;;0.00;0.00;;;;;;;0.80;59.21;98797.94;5370457;26;35660;-93
2023/11/29 07:00:49;;;;;;;0.90;0.90;;;;;;;0.87;59.22;98799.59;5374378;26;20073;-91
2023/11/29 07:03:20;;;;;;;0.00;0.00;;;;;;;0.95;59.22;98812.34;5334749;26;20064;-92
2023/11/29 07:05:52;;;;;;;0.45;0.45;;;;;;;0.72;59.21;98822.78;5352202;26;20102;-92
2023/11/29 07:08:30;;;;;;;;;;;;;;;;;;;;;
2023/11/29 07:11:01;;;;;;;0.00;0.00;;;;;;;0.85;59.22;98841.47;5352325;26;35615;-93
2023/11/29 07:13:38;;;;;;;0.22;0.22;;;;;;;0.85;59.22;98839.75;5332818;26;20056;-91
2023/11/29 07:16:18;;;;;;;0.10;0.10;;;;;;;0.84;59.22;98850.84;5336553;26;20063;-94
2023/11/29 07:19:23;;;;;;;;;;;;;;;;;;;;;
2023/11/29 07:25:16;;;;;;;2.37;0.70;;;;;;;0.89;59.23;98851.66;5361741;26;20056;-93
2023/11/29 07:28:13;;;;;;;;;;;;;;;;;;;;;
2023/11/29 07:33:54;;;;;;;1.15;1.10;;;;;;;0.89;59.22;98872.16;5383709;26;20024;-91
2023/11/29 07:36:33;;;;;;;;;;;;;;;;;;;;;
2023/11/29 07:45:06;;;;;;;0.80;0.57;;;;;;;0.99;59.23;98888.34;5353916;26;20089;-92
2023/11/29 07:47:47;;;;;;;;;;;;;;;;;;;;;
2023/11/29 07:50:23;;;;;;;0.45;0.45;;;;;;;1.05;59.23;98898.53;5354019;26;34833;-92
2023/11/29 07:53:29;;;;;;;;;;;;;;;;;;;;;
2023/11/29 07:56:05;;;;;;;1.85;1.35;;;;;;;0.94;59.22;98897.75;5389447;26;35569;-93
2023/11/29 07:59:30;;;;;;;;;;;;;;;;;;;;;
2023/11/29 08:02:02;;;;;;;0.93;0.93;;;;;;;1.29;59.24;98894.91;5384976;26;36080;-92
2023/11/29 08:05:27;;;;;;;;;;;;;;;;;;;;;
2023/11/29 08:15:59;;;;;;;;;;;;;;;;;;;;;
2023/11/29 08:18:41;;;;;;;0.00;0.00;;;;;;;1.52;59.25;98904.97;5389490;26;36413;-93
2023/11/29 08:21:37;;;;;;;;;;;;;;;;;;;;;
2023/11/29 08:28:07;;;;;;;0.30;0.30;;;;;;;1.59;59.26;98929.69;5363890;26;20853;-93
2023/11/29 08:48:10;;;;;;;;;;;;;;;;;;;;;
2023/11/29 08:54:59;;;;;;;;;;;;;;;;;;;;;
2023/11/29 09:08:57;;;;;;;;;;;;;;;;;;;;;
2023/11/29 09:11:57;;;;;;;4.32;2.30;;;;;;;2.45;59.31;98992.12;5177684;27;35611;-94
2023/11/29 09:14:53;;;;;;;;;;;;;;;;;;;;;
2023/11/29 09:17:46;;;;;;;;;;;;;;;;;;;;;
2023/11/29 09:20:20;;;;;;;0.20;0.20;;;;;;;2.64;59.32;99002.19;5263869;27;35790;-93
2023/11/29 10:07:09;;;;;;;;;;;;;;;;;;;;;
2023/11/29 10:13:50;;;;;;;;;;;;;;;;;;;;;
2023/11/29 10:27:50;;;;;;;;;;;;;;;;;;;;;
2023/11/29 10:39:18;;;;;;;;;;;;;;;;;;;;;
2023/11/29 10:44:40;;;;;;;1.25;1.00;;;;;;;4.10;59.40;99006.88;5102736;27;20178;-93
2023/11/29 11:12:59;;;;;;;;;;;;;;;;;;;;;
2023/11/29 11:16:07;;;;;;;;;;;;;;;;;;;;;
2023/11/29 11:22:35;;;;;;;0.32;0.25;;;;;;;4.21;59.41;99012.66;5208755;27;20062;-93
2023/11/29 11:32:35;;;;;;;0.70;0.70;;;;;;;4.27;59.42;99020.28;5188562;27;20114;-94
2023/11/29 11:35:28;;;;;;;;;;;;;;;;;;;;;
2023/11/29 11:38:06;;;;;;;0.00;0.00;;;;;;;4.57;59.42;99016.28;5342388;26;34635;-92
2023/11/29 11:40:56;;;;;;;;;;;;;;;;;;;;;
2023/11/29 11:43:45;;;;;;;;;;;;;;;;;;;;;
2023/11/29 11:46:21;;;;;;;;;;;;;;;;;;;;;
2023/11/29 11:55:20;;;;;;;0.00;0.00;;;;;;;4.75;59.44;99022.81;5343713;26;20049;-92
2023/11/29 11:58:15;;;;;;;3.40;0.52;;;;;;;4.82;59.44;99032.97;5308251;26;20416;-92
2023/11/29 12:04:21;;;;;;;0.00;0.00;;;;;;;5.08;59.45;99047.87;5335463;26;20064;-92
2023/11/29 12:07:02;;;;;;;0.00;0.00;;;;;;;4.98;59.45;99050.72;5320586;26;20067;-93
2023/11/29 12:13:10;;;;;;;0.52;0.52;;;;;;;4.57;59.42;99062.69;5306375;26;20061;-92
2023/11/29 12:15:46;;;;;;;;;;;;;;;;;;;;;
2023/11/29 12:18:59;;;;;;;;;;;;;;;;;;;;;
2023/11/29 12:21:40;;;;;;;0.20;0.20;;;;;;;4.76;59.43;99056.28;5342158;26;36355;-93
2023/11/29 12:24:31;;;;;;;;;;;;;;;;;;;;;
2023/11/29 12:27:29;;;;;;;;;;;;;;;;;;;;;
2023/11/29 12:34:14;;;;;;;;;;;;;;;;;;;;;
2023/11/29 12:37:08;;;;;;;0.47;0.47;;;;;;;5.15;59.46;99056.34;5339348;26;20068;-92
2023/11/29 12:39:44;;;;;;;1.15;0.35;;;;;;;5.31;59.46;99043.97;5332527;26;20118;-93
2023/11/29 12:43:03;;;;;;;;;;;;;;;;;;;;;
2023/11/29 12:45:31;;;;;;;3.87;2.03;;;;;;;5.24;59.47;99038.94;5313082;26;35437;-92
2023/11/29 12:48:37;;;;;;;;;;;;;;;;;;;;;
2023/11/29 12:51:15;;;;;;;;;;;;;;;;;;;;;
2023/11/29 12:57:08;;;;;;;;;;;;;;;;;;;;;
2023/11/29 12:59:37;;;;;;;0.10;0.10;;;;;;;5.38;59.47;99053.25;5344321;26;34902;-93
2023/11/29 13:02:20;;;;;;;;;;;;;;;;;;;;;
2023/11/29 13:05:01;;;;;;;;;;;;;;;;;;;;;
2023/11/29 13:07:47;;;;;;;1.95;1.50;;;;;;;5.44;59.48;99053.12;5341562;26;35545;-93
2023/11/29 13:13:01;;;;;;;0.17;0.17;;;;;;;5.35;59.47;99066.25;5315214;26;20049;-91
2023/11/29 13:15:28;;;;;;;4.90;1.02;;;;;;;5.56;59.49;99065.75;5305205;26;20079;-92
2023/11/29 13:17:53;;;;;;;0.75;0.75;;;;;;;5.54;59.49;99068.38;5305750;26;20060;-92
2023/11/29 13:20:19;;;;;;;0.00;0.00;;;;;;;5.60;59.48;99064.81;5305721;26;20075;-91
2023/11/29 13:22:44;;;;;;;0.20;0.20;;;;;;;5.60;59.48;99071.69;5323317;26;20055;-92
2023/11/29 13:25:10;;;;;;;0.35;0.20;;;;;;;5.55;59.49;99061.50;5323633;26;20048;-92
2023/11/29 13:27:35;;;;;;;0.57;0.57;;;;;;;5.40;59.48;99074.72;5305225;26;20068;-92
2023/11/29 13:30:01;;;;;;;0.60;0.57;;;;;;;5.20;59.47;99082.88;5305425;26;20060;-92
2023/11/29 13:32:27;;;;;;;0.50;0.50;;;;;;;5.23;59.46;99090.59;5305303;26;20411;-93
2023/11/29 13:34:52;;;;;;;0.00;0.00;;;;;;;5.19;59.47;99097.50;5305515;26;20412;-92
2023/11/29 13:37:18;;;;;;;0.00;0.00;;;;;;;5.10;59.46;99097.72;5305446;26;20365;-93
2023/11/29 13:39:45;;;;;;;0.70;0.70;;;;;;;5.26;59.47;99105.16;5305433;26;20075;-91
2023/11/29 13:42:11;;;;;;;0.40;0.40;;;;;;;5.16;59.46;99104.47;5306004;26;20048;-92
2023/11/29 13:44:36;;;;;;;0.30;0.30;;;;;;;4.98;59.45;99097.97;5305214;26;20064;-91
2023/11/29 13:47:04;;;;;;;1.45;1.35;;;;;;;5.07;59.46;99113.25;5304941;26;20081;-91
2023/11/29 13:49:37;;;;;;;0.00;0.00;;;;;;;5.07;59.46;99108.09;5305546;26;20049;-93
2023/11/29 13:52:03;;;;;;;0.55;0.55;;;;;;;5.04;59.46;99112.47;5307165;26;20072;-91
2023/11/29 13:54:31;;;;;;;0.05;0.05;;;;;;;5.11;59.46;99119.19;5305441;26;20099;-92
2023/11/29 13:56:56;;;;;;;3.10;0.68;;;;;;;5.10;59.46;99117.50;5305630;26;20061;-92
2023/11/29 13:59:21;;;;;;;0.32;0.32;;;;;;;5.00;59.45;99134.06;5341720;26;20145;-94
2023/11/29 14:01:47;;;;;;;0.43;0.43;;;;;;;5.00;59.45;99134.91;5323434;26;20060;-92
2023/11/29 14:04:12;;;;;;;0.00;0.00;;;;;;;5.09;59.46;99132.13;5323349;26;20099;-91
2023/11/29 14:06:38;;;;;;;0.88;0.65;;;;;;;5.01;59.47;99136.59;5313695;26;20068;-93
2023/11/29 14:09:04;;;;;;;0.30;0.30;;;;;;;5.12;59.46;99131.22;5304994;26;20545;-91
2023/11/29 14:11:35;;;;;;;0.65;0.55;;;;;;;4.89;59.45;99129.09;5323215;26;20070;-91
2023/11/29 14:14:01;;;;;;;1.67;1.58;;;;;;;5.01;59.46;99126.28;5324358;26;20062;-91
2023/11/29 14:16:26;;;;;;;0.88;0.82;;;;;;;5.14;59.46;99126.88;5324227;26;20325;-92
2023/11/29 14:18:52;;;;;;;1.85;1.40;;;;;;;5.04;59.45;99131.38;5306105;26;20068;-92
2023/11/29 14:21:17;;;;;;;2.37;1.40;;;;;;;5.16;59.47;99131.13;5323718;26;20106;-92
2023/11/29 14:23:43;;;;;;;1.55;1.45;;;;;;;5.02;59.46;99137.44;5305886;26;20110;-92
2023/11/29 14:26:09;;;;;;;0.00;0.00;;;;;;;5.16;59.46;99143.16;5324403;26;20056;-93
2023/11/29 14:28:37;;;;;;;0.30;0.30;;;;;;;5.03;59.45;99142.56;5324319;26;20110;-93
2023/11/29 14:31:03;;;;;;;0.32;0.32;;;;;;;4.75;59.44;99150.00;5324490;26;20096;-92
2023/11/29 14:33:29;;;;;;;1.83;1.35;;;;;;;4.77;59.44;99163.69;5305653;26;20081;-92
2023/11/29 14:35:54;;;;;;;0.17;0.17;;;;;;;4.50;59.43;99159.88;5324299;26;20075;-93
2023/11/29 14:38:19;;;;;;;0.73;0.73;;;;;;;4.57;59.43;99166.62;5324262;26;20084;-92
2023/11/29 14:40:45;;;;;;;0.00;0.00;;;;;;;4.45;59.42;99164.22;5324069;26;20108;-92
2023/11/29 14:43:10;;;;;;;0.10;0.10;;;;;;;4.32;59.41;99181.62;5343119;26;20056;-92
2023/11/29 14:45:38;;;;;;;0.37;0.37;;;;;;;4.40;59.42;99180.66;5323758;26;20052;-92
2023/11/29 14:48:04;;;;;;;0.10;0.10;;;;;;;4.43;59.43;99183.19;5324314;26;20068;-92
2023/11/29 14:50:30;;;;;;;1.55;1.15;;;;;;;4.38;59.42;99190.97;5323986;26;20069;-92
2023/11/29 14:52:58;;;;;;;0.00;0.00;;;;;;;4.43;59.43;99191.75;5324332;26;20072;-92
2023/11/29 14:55:23;;;;;;;0.20;0.20;;;;;;;4.23;59.41;99202.38;5305435;26;20064;-91
2023/11/29 14:57:49;;;;;;;0.00;0.00;;;;;;;4.28;59.42;99202.31;5324061;26;20074;-91
2023/11/29 15:00:15;;;;;;;0.22;0.22;;;;;;;4.12;59.40;99203.41;5323538;26;20053;-92
2023/11/29 15:02:40;;;;;;;2.40;1.10;;;;;;;4.20;59.40;99199.00;5324051;26;20078;-92
2023/11/29 15:05:21;;;;;;;;;;;;;;;;;;;;;
2023/11/29 15:07:49;;;;;;;0.20;0.20;;;;;;;4.01;59.40;99200.97;5347324;26;35455;-92
2023/11/29 15:10:15;;;;;;;2.40;2.25;;;;;;;4.14;59.41;99206.81;5346398;26;20073;-92
2023/11/29 15:12:40;;;;;;;1.95;1.70;;;;;;;4.09;59.40;99200.91;5327966;26;20552;-92
2023/11/29 15:15:06;;;;;;;2.47;2.03;;;;;;;4.05;59.40;99206.97;5210427;26;2761973;-91
2023/11/29 15:17:32;;;;;;;4.50;2.30;;;;;;;3.91;59.40;99204.56;5328187;26;20095;-92
2023/11/29 15:19:57;;;;;;;0.80;0.80;;;;;;;3.93;59.39;99211.41;5346689;26;20102;-92
2023/11/29 15:22:26;;;;;;;1.42;0.80;;;;;;;3.95;59.40;99209.66;5328020;26;20139;-92
2023/11/29 15:24:58;;;;;;;2.20;2.03;;;;;;;3.91;59.40;99214.88;5328562;26;20060;-92
2023/11/29 15:27:25;;;;;;;3.50;2.75;;;;;;;3.80;59.39;99211.59;5347785;26;20079;-92
2023/11/29 15:29:50;;;;;;;4.85;3.30;;;;;;;3.67;59.38;99213.47;5328433;26;20071;-92
2023/11/29 15:32:16;;;;;;;1.00;0.90;;;;;;;3.68;59.37;99233.19;5328211;26;20415;-92
2023/11/29 15:34:52;;;;;;;;;;;;;;;;;;;;;
2023/11/29 15:37:17;;;;;;;0.25;0.25;;;;;;;3.76;59.38;99220.22;5347179;26;35479;-92
2023/11/29 15:39:43;;;;;;;3.10;2.15;;;;;;;3.60;59.37;99235.88;5346873;26;20084;-92
2023/11/29 15:42:13;;;;;;;1.30;1.23;;;;;;;3.49;59.37;99232.56;5328221;26;20071;-92
2023/11/29 15:44:51;;;;;;;1.25;0.47;;;;;;;3.56;59.37;99228.22;5330431;26;20105;-91
2023/11/29 15:47:19;;;;;;;0.20;0.20;;;;;;;3.80;59.39;99232.19;5349629;26;20064;-92
2023/11/29 15:49:55;;;;;;;2.37;2.05;;;;;;;3.83;59.40;99227.00;5365290;26;20060;-92
2023/11/29 15:52:22;;;;;;;4.10;1.52;;;;;;;3.69;59.39;99235.75;5330218;26;20636;-92
2023/11/29 15:55:03;;;;;;;;;;;;;;;;;;;;;
2023/11/29 15:57:43;;;;;;;2.33;1.95;;;;;;;3.42;59.37;99237.81;5347721;26;35348;-93
2023/11/29 16:00:23;;;;;;;;;;;;;;;;;;;;;
2023/11/29 16:03:01;;;;;;;;;;;;;;;;;;;;;
2023/11/29 16:06:02;;;;;;;;;;;;;;;;;;;;;
2023/11/29 16:08:46;;;;;;;;;;;;;;;;;;;;;
2023/11/29 16:12:01;;;;;;;4.37;1.83;;;;;;;3.13;59.35;99245.84;5353906;26;35830;-93
2023/11/29 16:18:22;;;;;;;;;;;;;;;;;;;;;
2023/11/29 16:25:01;;;;;;;1.15;1.08;;;;;;;2.94;59.33;99268.28;5231698;27;20069;-93
2023/11/29 16:41:36;;;;;;;;;;;;;;;;;;;;;
2023/11/29 17:20:05;;;;;;;;;;;;;;;;;;;;;
2023/11/29 17:27:02;;;;;;;;;;;;;;;;;;;;;
2023/11/29 17:30:27;;;;;;;;;;;;;;;;;;;;;
2023/11/29 17:33:57;;;;;;;1.67;1.52;;;;;;;1.62;59.26;99314.44;5195860;27;36399;-92
2023/11/29 17:36:51;;;;;;;;;;;;;;;;;;;;;
2023/11/29 17:42:57;;;;;;;;;;;;;;;;;;;;;
2023/11/29 17:46:14;;;;;;;;;;;;;;;;;;;;;
2023/11/29 17:49:11;;;;;;;0.00;0.00;;;;;;;1.20;59.24;99334.22;5242937;27;20670;-93
2023/11/29 17:52:17;;;;;;;;;;;;;;;;;;;;;
2023/11/29 17:55:36;;;;;;;;;;;;;;;;;;;;;
2023/11/29 18:01:42;;;;;;;;;;;;;;;;;;;;;
2023/11/29 18:04:34;;;;;;;0.00;0.00;;;;;;;1.08;59.23;99341.03;5328819;26;35457;-93
2023/11/29 18:07:20;;;;;;;0.55;0.55;;;;;;;1.05;59.23;99341.91;5310475;26;20057;-93
2023/11/29 18:10:27;;;;;;;0.52;0.52;;;;;;;0.99;59.22;99339.34;5317790;26;20087;-92
2023/11/29 18:13:10;;;;;;;;;;;;;;;;;;;;;
2023/11/29 18:15:46;;;;;;;;;;;;;;;;;;;;;
2023/11/29 18:18:23;;;;;;;0.70;0.70;;;;;;;0.75;59.21;99342.75;5366036;26;35214;-93
2023/11/29 18:20:55;;;;;;;0.00;0.00;;;;;;;0.82;59.22;99338.47;5348375;26;20068;-92
2023/11/29 18:23:32;;;;;;;0.00;0.00;;;;;;;0.72;59.21;99345.31;5330655;26;20062;-92
2023/11/29 18:26:09;;;;;;;0.00;0.00;;;;;;;0.74;59.22;99343.59;5349572;26;20115;-93
2023/11/29 18:28:58;;;;;;;0.32;0.32;;;;;;;0.79;59.22;99356.41;5329811;26;20063;-92
2023/11/29 18:31:34;;;;;;;0.20;0.20;;;;;;;0.77;59.21;99348.72;5349716;26;20071;-92
2023/11/29 18:34:07;;;;;;;0.22;0.20;;;;;;;0.67;59.21;99353.81;5349594;26;20059;-92
2023/11/29 18:36:45;;;;;;;1.08;1.08;;;;;;;0.76;59.22;99348.72;5348604;26;20074;-93
2023/11/29 18:39:23;;;;;;;;;;;;;;;;;;;;;
2023/11/29 18:42:01;;;;;;;;;;;;;;;;;;;;;
2023/11/29 18:44:47;;;;;;;;;;;;;;;;;;;;;